createdAt,value
2022-10-10T00:00:19.112Z,51.05
2022-10-10T00:02:46.586Z,50.98
2022-10-10T00:05:14.014Z,50.97
2022-10-10T00:07:41.464Z,51.04
2022-10-10T00:10:10.636Z,50.99
2022-10-10T00:12:38.127Z,51.13
2022-10-10T00:15:06.112Z,51.18
2022-10-10T00:17:33.536Z,51.05
2022-10-10T00:20:00.991Z,50.97
2022-10-10T00:22:28.425Z,51.02
2022-10-10T00:24:55.869Z,50.88
2022-10-10T00:27:24.623Z,51.12
2022-10-10T00:29:52.168Z,51.23
2022-10-10T00:32:19.609Z,50.87
2022-10-10T00:34:47.031Z,50.82
2022-10-10T00:37:14.459Z,50.93
2022-10-10T00:39:41.889Z,51.02
2022-10-10T00:42:11.597Z,50.92
2022-10-10T00:44:41.438Z,51.08
2022-10-10T00:47:09.077Z,51.08
2022-10-10T00:49:36.958Z,50.92
2022-10-10T00:52:04.487Z,51.20
2022-10-10T00:54:32.282Z,50.85
2022-10-10T00:57:01.423Z,51.05
2022-10-10T00:59:29.010Z,50.72
2022-10-10T01:01:57.965Z,51.00
2022-10-10T01:04:30.603Z,51.17
2022-10-10T01:06:58.071Z,51.09
2022-10-10T01:09:25.503Z,50.94
2022-10-10T01:11:53.959Z,51.05
2022-10-10T01:14:27.835Z,50.79
2022-10-10T01:16:59.505Z,50.93
2022-10-10T01:19:51.586Z,50.54
2022-10-10T01:22:23.766Z,50.87
2022-10-10T01:24:56.770Z,50.82
2022-10-10T01:27:31.708Z,50.66
2022-10-10T01:30:02.486Z,50.67
2022-10-10T01:32:32.829Z,50.85
2022-10-10T01:35:09.437Z,50.75
2022-10-10T01:37:41.680Z,50.70
2022-10-10T01:40:12.402Z,50.90
2022-10-10T01:42:42.683Z,50.46
2022-10-10T01:45:11.600Z,50.54
2022-10-10T01:47:39.573Z,50.81
2022-10-10T01:50:08.626Z,50.80
2022-10-10T01:52:41.047Z,50.68
2022-10-10T01:55:29.868Z,50.51
2022-10-10T01:58:03.685Z,50.65
2022-10-10T02:00:32.949Z,50.63
2022-10-10T02:03:03.175Z,50.62
2022-10-10T02:05:33.505Z,50.63
2022-10-10T02:08:02.345Z,50.75
2022-10-10T02:10:31.862Z,50.62
2022-10-10T02:13:00.816Z,50.70
2022-10-10T02:15:30.092Z,50.73
2022-10-10T02:17:58.898Z,50.58
2022-10-10T02:20:27.633Z,50.67
2022-10-10T02:22:55.242Z,50.58
2022-10-10T02:25:24.557Z,50.48
2022-10-10T02:27:57.794Z,50.59
2022-10-10T02:30:25.223Z,50.71
2022-10-10T02:32:54.072Z,50.73
2022-10-10T02:35:24.329Z,50.60
2022-10-10T02:37:51.590Z,50.69
2022-10-10T02:40:21.503Z,50.56
2022-10-10T02:42:49.368Z,50.84
2022-10-10T02:45:17.003Z,50.56
2022-10-10T02:47:45.299Z,50.61
2022-10-10T02:50:12.843Z,50.67
2022-10-10T02:52:41.810Z,50.73
2022-10-10T02:55:09.450Z,50.80
2022-10-10T02:57:36.929Z,50.58
2022-10-10T03:00:04.674Z,50.76
2022-10-10T03:02:32.123Z,50.69
2022-10-10T03:04:59.602Z,50.67
2022-10-10T03:07:27.131Z,50.71
2022-10-10T03:09:56.039Z,50.82
2022-10-10T03:12:23.452Z,50.79
2022-10-10T03:14:50.898Z,50.65
2022-10-10T03:17:18.324Z,50.76
2022-10-10T03:19:45.779Z,50.77
2022-10-10T03:22:13.217Z,50.58
2022-10-10T03:24:40.706Z,50.87
2022-10-10T03:27:09.452Z,50.64
2022-10-10T03:29:36.905Z,50.63
2022-10-10T03:32:06.920Z,50.40
2022-10-10T03:34:37.684Z,50.59
2022-10-10T03:37:05.113Z,50.60
2022-10-10T03:39:32.608Z,50.53
2022-10-10T03:42:00.062Z,50.47
2022-10-10T03:44:28.837Z,50.55
2022-10-10T03:46:56.280Z,50.69
2022-10-10T03:49:23.762Z,50.64
2022-10-10T03:51:51.278Z,50.57
2022-10-10T03:54:18.734Z,50.59
2022-10-10T03:56:46.231Z,50.27
2022-10-10T03:59:13.681Z,50.45
2022-10-10T04:01:42.487Z,50.55
2022-10-10T04:04:09.979Z,50.77
2022-10-10T04:06:37.422Z,50.71
2022-10-10T04:09:05.203Z,50.68
2022-10-10T04:11:32.651Z,50.69
2022-10-10T04:14:00.091Z,50.88
2022-10-10T04:16:27.539Z,50.79
2022-10-10T04:18:56.328Z,50.65
2022-10-10T04:21:23.762Z,50.53
2022-10-10T04:23:51.216Z,50.62
2022-10-10T04:26:18.668Z,50.52
2022-10-10T04:28:46.497Z,50.36
2022-10-10T04:31:14.043Z,50.62
2022-10-10T04:33:41.486Z,50.48
2022-10-10T04:36:10.288Z,50.64
2022-10-10T04:38:37.738Z,50.56
2022-10-10T04:41:05.349Z,50.64
2022-10-10T04:43:32.807Z,50.83
2022-10-10T04:46:00.254Z,50.77
2022-10-10T04:48:27.748Z,50.69
2022-10-10T04:50:55.429Z,50.95
2022-10-10T04:53:24.221Z,50.90
2022-10-10T04:55:51.661Z,50.79
2022-10-10T04:58:19.146Z,50.91
2022-10-10T05:00:46.658Z,50.80
2022-10-10T05:03:14.094Z,50.99
2022-10-10T05:05:41.556Z,50.84
2022-10-10T05:08:09.011Z,50.78
2022-10-10T05:10:38.727Z,50.92
2022-10-10T05:13:06.210Z,50.73
2022-10-10T05:15:35.174Z,50.97
2022-10-10T05:18:02.633Z,50.88
2022-10-10T05:20:30.098Z,50.87
2022-10-10T05:22:57.540Z,50.80
2022-10-10T05:25:25.018Z,50.74
2022-10-10T05:27:53.774Z,50.90
2022-10-10T05:30:21.281Z,50.76
2022-10-10T05:32:48.976Z,50.72
2022-10-10T05:35:17.455Z,50.84
2022-10-10T05:37:44.905Z,50.72
2022-10-10T05:40:12.625Z,50.70
2022-10-10T05:42:40.054Z,50.53
2022-10-10T05:45:10.029Z,50.46
2022-10-10T05:47:37.445Z,50.55
2022-10-10T05:50:05.383Z,50.79
2022-10-10T05:52:32.990Z,50.59
2022-10-10T05:55:00.440Z,50.63
2022-10-10T05:57:27.869Z,50.56
2022-10-10T05:59:55.298Z,50.74
2022-10-10T06:02:24.100Z,50.95
2022-10-10T06:04:51.580Z,50.77
2022-10-10T06:07:19.050Z,51.02
2022-10-10T06:09:46.802Z,50.87
2022-10-10T06:12:14.233Z,50.97
2022-10-10T06:14:41.886Z,51.09
2022-10-10T06:17:09.327Z,51.22
2022-10-10T06:19:38.092Z,51.50
2022-10-10T06:22:05.524Z,52.16
2022-10-10T06:24:33.113Z,52.36
2022-10-10T06:27:00.578Z,52.49
2022-10-10T06:29:28.106Z,52.62
2022-10-10T06:31:55.617Z,52.63
2022-10-10T06:34:23.054Z,52.29
2022-10-10T06:36:51.949Z,52.27
2022-10-10T06:39:19.600Z,52.46
2022-10-10T06:41:47.049Z,52.66
2022-10-10T06:44:14.486Z,52.74
2022-10-10T06:46:41.950Z,53.12
2022-10-10T06:49:09.397Z,52.91
2022-10-10T06:51:37.970Z,53.04
2022-10-10T06:54:06.873Z,53.05
2022-10-10T06:56:35.323Z,52.91
2022-10-10T06:59:02.785Z,52.77
2022-10-10T07:01:30.406Z,52.44
2022-10-10T07:03:57.943Z,52.56
2022-10-10T07:06:25.407Z,52.30
2022-10-10T07:08:52.851Z,52.29
2022-10-10T07:11:22.414Z,52.26
2022-10-10T07:13:50.986Z,51.96
2022-10-10T07:16:18.420Z,51.67
2022-10-10T07:18:45.866Z,51.68
2022-10-10T07:21:13.297Z,51.47
2022-10-10T07:23:40.785Z,51.36
2022-10-10T07:26:10.689Z,51.28
2022-10-10T07:28:39.582Z,50.84
2022-10-10T07:31:08.471Z,50.96
2022-10-10T07:33:36.680Z,51.03
2022-10-10T07:36:04.149Z,50.72
2022-10-10T07:38:31.596Z,51.03
2022-10-10T07:40:59.031Z,51.14
2022-10-10T07:43:26.574Z,51.27
2022-10-10T07:45:55.360Z,51.12
2022-10-10T07:48:22.809Z,51.33
2022-10-10T07:50:50.246Z,51.00
2022-10-10T07:53:17.686Z,51.00
2022-10-10T07:55:45.107Z,51.38
2022-10-10T07:58:12.584Z,51.15
2022-10-10T08:00:41.765Z,51.54
2022-10-10T08:03:12.057Z,51.28
2022-10-10T08:05:41.014Z,51.12
2022-10-10T08:08:08.514Z,51.19
2022-10-10T08:10:36.000Z,51.83
2022-10-10T08:13:03.433Z,52.16
2022-10-10T08:15:33.818Z,52.69
2022-10-10T08:18:01.640Z,52.33
2022-10-10T08:20:30.421Z,52.27
2022-10-10T08:22:57.851Z,52.04
2022-10-10T08:25:25.309Z,51.86
2022-10-10T08:27:52.737Z,51.92
2022-10-10T08:30:20.178Z,52.08
2022-10-10T08:32:47.607Z,52.09
2022-10-10T08:35:15.212Z,51.98
2022-10-10T08:37:43.961Z,51.94
2022-10-10T08:40:11.554Z,51.60
2022-10-10T08:42:46.978Z,51.77
2022-10-10T08:45:17.485Z,51.85
2022-10-10T08:47:46.834Z,51.74
2022-10-10T08:50:17.063Z,52.00
2022-10-10T08:52:48.763Z,51.77
2022-10-10T08:55:18.006Z,51.68
2022-10-10T08:57:49.385Z,51.98
2022-10-10T09:00:18.414Z,51.69
2022-10-10T09:02:56.327Z,51.61
2022-10-10T09:05:31.119Z,51.31
2022-10-10T09:08:14.938Z,51.10
2022-10-10T09:10:46.666Z,51.01
2022-10-10T09:13:19.974Z,51.58
2022-10-10T09:15:52.827Z,51.25
2022-10-10T09:18:23.317Z,51.16
2022-10-10T09:20:53.310Z,51.20
2022-10-10T09:23:23.017Z,51.34
2022-10-10T09:25:53.590Z,51.29
2022-10-10T09:28:23.016Z,51.08
2022-10-10T09:30:51.962Z,51.16
2022-10-10T09:33:24.696Z,51.23
2022-10-10T09:35:52.137Z,51.01
2022-10-10T09:38:32.142Z,51.28
2022-10-10T09:41:00.929Z,51.06
2022-10-10T09:43:31.074Z,51.30
2022-10-10T09:45:58.484Z,51.23
2022-10-10T09:48:28.561Z,51.41
2022-10-10T09:50:56.171Z,51.05
2022-10-10T09:53:25.225Z,50.80
2022-10-10T09:55:53.606Z,50.98
2022-10-10T09:58:24.858Z,51.08
2022-10-10T10:00:53.691Z,51.04
2022-10-10T10:03:21.822Z,50.95
2022-10-10T10:05:55.981Z,50.44
2022-10-10T10:10:48.042Z,50.77
2022-10-10T10:13:15.566Z,50.68
2022-10-10T10:15:48.481Z,50.83
2022-10-10T10:18:24.869Z,50.75
2022-10-10T10:20:52.761Z,50.47
2022-10-10T10:23:24.522Z,50.66
2022-10-10T10:26:00.876Z,50.50
2022-10-10T10:28:28.986Z,50.85
2022-10-10T10:30:57.689Z,51.07
2022-10-10T10:33:39.308Z,51.29
2022-10-10T10:36:12.798Z,51.40
2022-10-10T10:38:43.192Z,51.75
2022-10-10T10:41:15.065Z,51.79
2022-10-10T10:43:55.958Z,51.73
2022-10-10T10:46:30.842Z,51.78
2022-10-10T10:49:01.995Z,51.62
2022-10-10T10:51:49.069Z,51.98
2022-10-10T10:54:24.690Z,51.98
2022-10-10T10:56:58.878Z,51.97
2022-10-10T11:00:25.877Z,51.82
2022-10-10T11:02:54.694Z,51.97
2022-10-10T11:05:41.659Z,52.29
2022-10-10T11:08:36.718Z,52.01
2022-10-10T11:11:10.874Z,52.04
2022-10-10T11:13:41.318Z,52.04
2022-10-10T11:16:36.350Z,52.26
2022-10-10T11:19:06.321Z,52.45
2022-10-10T11:21:34.006Z,52.34
2022-10-10T11:24:03.312Z,52.33
2022-10-10T11:26:31.619Z,52.61
2022-10-10T11:29:01.627Z,52.56
2022-10-10T11:31:29.342Z,52.68
2022-10-10T11:33:58.618Z,52.39
2022-10-10T11:36:26.854Z,52.46
2022-10-10T11:38:55.750Z,52.79
2022-10-10T11:41:23.858Z,52.48
2022-10-10T11:43:52.716Z,52.95
2022-10-10T11:46:26.269Z,52.75
2022-10-10T11:48:58.057Z,53.18
2022-10-10T11:51:32.165Z,53.34
2022-10-10T11:54:01.124Z,53.19
2022-10-10T11:56:31.134Z,53.42
2022-10-10T11:59:00.985Z,53.41
2022-10-10T12:01:30.516Z,53.45
2022-10-10T12:03:58.164Z,53.31
2022-10-10T12:06:26.644Z,53.63
2022-10-10T12:08:58.374Z,53.65
2022-10-10T12:11:27.613Z,53.45
2022-10-10T12:13:55.831Z,53.95
2022-10-10T12:16:29.553Z,51.01
2022-10-10T12:19:01.832Z,50.49
2022-10-10T12:21:30.162Z,49.98
2022-10-10T12:24:02.053Z,50.04
2022-10-10T12:27:03.073Z,49.89
2022-10-10T12:29:41.032Z,50.11
2022-10-10T12:32:24.172Z,50.28
2022-10-10T12:34:59.566Z,50.25
2022-10-10T12:37:27.369Z,49.69
2022-10-10T12:40:03.054Z,49.63
2022-10-10T12:42:32.006Z,49.45
2022-10-10T12:44:59.553Z,49.78
2022-10-10T12:47:52.761Z,50.37
2022-10-10T12:50:22.949Z,50.79
2022-10-10T12:52:51.853Z,50.96
2022-10-10T12:55:21.302Z,51.22
2022-10-10T12:57:49.212Z,51.08
2022-10-10T13:00:18.105Z,50.84
2022-10-10T13:02:47.226Z,51.24
2022-10-10T13:05:16.061Z,51.22
2022-10-10T13:07:45.589Z,51.21
2022-10-10T13:10:22.166Z,51.20
2022-10-10T13:12:59.335Z,51.64
2022-10-10T13:15:26.924Z,52.02
2022-10-10T13:17:54.391Z,50.65
2022-10-10T13:20:28.626Z,49.56
2022-10-10T13:22:57.816Z,49.44
2022-10-10T13:25:25.268Z,48.63
2022-10-10T13:27:52.710Z,49.32
2022-10-10T13:30:20.476Z,49.46
2022-10-10T13:32:47.924Z,49.79
2022-10-10T13:35:16.297Z,50.14
2022-10-10T13:37:43.795Z,50.28
2022-10-10T13:40:15.711Z,50.42
2022-10-10T13:42:43.183Z,50.52
2022-10-10T13:45:31.443Z,50.60
2022-10-10T13:48:12.360Z,50.80
2022-10-10T13:50:53.684Z,51.08
2022-10-10T13:53:25.808Z,51.02
2022-10-10T13:55:58.708Z,51.38
2022-10-10T13:58:26.269Z,51.46
2022-10-10T14:00:57.096Z,51.59
2022-10-10T14:03:24.557Z,51.62
2022-10-10T14:05:51.982Z,51.67
2022-10-10T14:08:20.441Z,51.68
2022-10-10T14:10:58.586Z,51.46
2022-10-10T14:13:26.086Z,51.79
2022-10-10T14:15:54.363Z,51.89
2022-10-10T14:18:22.692Z,52.03
2022-10-10T14:20:50.395Z,51.57
2022-10-10T14:23:17.858Z,52.00
2022-10-10T14:25:46.564Z,51.95
2022-10-10T14:28:15.825Z,51.98
2022-10-10T14:30:43.326Z,52.13
2022-10-10T14:33:11.859Z,52.21
2022-10-10T14:35:39.579Z,51.88
2022-10-10T14:38:07.017Z,52.01
2022-10-10T14:40:34.634Z,52.03
2022-10-10T14:43:02.083Z,52.17
2022-10-10T14:45:30.847Z,52.39
2022-10-10T14:47:58.272Z,52.49
2022-10-10T14:50:26.881Z,52.39
2022-10-10T14:52:54.484Z,52.55
2022-10-10T14:55:21.933Z,52.50
2022-10-10T14:57:49.377Z,52.53
2022-10-10T15:00:18.417Z,52.56
2022-10-10T15:02:47.273Z,52.56
2022-10-10T15:05:14.922Z,52.48
2022-10-10T15:07:42.353Z,52.78
2022-10-10T15:10:32.728Z,52.60
2022-10-10T15:12:58.095Z,52.77
2022-10-10T15:15:25.534Z,52.66
2022-10-10T15:17:54.302Z,52.92
2022-10-10T15:20:25.453Z,52.60
2022-10-10T15:22:52.903Z,52.62
2022-10-10T15:25:20.435Z,52.75
2022-10-10T15:27:48.135Z,52.87
2022-10-10T15:30:15.584Z,53.03
2022-10-10T15:32:43.022Z,52.96
2022-10-10T15:35:14.344Z,53.05
2022-10-10T15:37:41.773Z,52.83
2022-10-10T15:40:10.132Z,52.83
2022-10-10T15:42:37.566Z,53.13
2022-10-10T15:45:05.356Z,53.02
2022-10-10T15:47:33.124Z,52.94
2022-10-10T15:50:00.879Z,53.08
2022-10-10T15:52:29.692Z,53.03
2022-10-10T15:54:57.129Z,53.21
2022-10-10T15:57:24.585Z,53.00
2022-10-10T15:59:52.025Z,53.29
2022-10-10T16:02:19.494Z,53.17
2022-10-10T16:04:46.949Z,53.45
2022-10-10T16:07:31.752Z,53.44
2022-10-10T16:10:03.329Z,53.34
2022-10-10T16:12:30.762Z,53.38
2022-10-10T16:14:59.053Z,53.44
2022-10-10T16:17:28.657Z,53.31
2022-10-10T16:19:56.130Z,53.44
2022-10-10T16:22:23.589Z,53.70
2022-10-10T16:25:10.317Z,53.66
2022-10-10T16:27:39.845Z,53.57
2022-10-10T16:30:08.630Z,53.91
2022-10-10T16:32:41.770Z,53.68
2022-10-10T16:35:10.534Z,53.78
2022-10-10T16:37:38.330Z,53.94
2022-10-10T16:40:07.164Z,53.84
2022-10-10T16:42:35.356Z,54.10
2022-10-10T16:45:04.610Z,53.82
2022-10-10T16:47:32.056Z,54.11
2022-10-10T16:49:59.486Z,53.98
2022-10-10T16:52:27.005Z,54.19
2022-10-10T16:54:54.468Z,53.85
2022-10-10T16:57:21.930Z,54.20
2022-10-10T16:59:49.360Z,54.25
2022-10-10T17:02:18.126Z,53.87
2022-10-10T17:04:45.576Z,54.11
2022-10-10T17:07:13.019Z,54.23
2022-10-10T17:09:40.573Z,54.32
2022-10-10T17:12:08.040Z,54.08
2022-10-10T17:14:35.486Z,54.30
2022-10-10T17:17:18.230Z,54.17
2022-10-10T17:19:49.019Z,54.03
2022-10-10T17:22:16.608Z,54.17
2022-10-10T17:24:44.046Z,54.36
2022-10-10T17:27:11.635Z,54.17
2022-10-10T17:29:39.065Z,54.46
2022-10-10T17:32:06.950Z,54.62
2022-10-10T17:34:34.959Z,54.64
2022-10-10T17:37:03.860Z,54.67
2022-10-10T17:39:31.764Z,54.53
2022-10-10T17:41:59.840Z,54.93
2022-10-10T17:44:27.331Z,54.73
2022-10-10T17:46:54.762Z,54.77
2022-10-10T17:49:22.214Z,54.89
2022-10-10T17:51:49.697Z,55.02
2022-10-10T17:54:18.509Z,55.00
2022-10-10T17:56:45.986Z,55.07
2022-10-10T17:59:13.543Z,55.00
2022-10-10T18:01:41.125Z,55.26
2022-10-10T18:04:08.764Z,55.36
2022-10-10T18:06:37.042Z,55.48
2022-10-10T18:09:04.733Z,55.53
2022-10-10T18:11:33.526Z,55.69
2022-10-10T18:14:01.286Z,55.72
2022-10-10T18:16:29.908Z,55.41
2022-10-10T18:18:57.385Z,55.84
2022-10-10T18:21:24.847Z,55.69
2022-10-10T18:23:52.441Z,55.88
2022-10-10T18:26:20.892Z,55.87
2022-10-10T18:28:52.219Z,56.07
2022-10-10T18:31:21.423Z,56.06
2022-10-10T18:33:48.893Z,55.94
2022-10-10T18:36:17.408Z,56.11
2022-10-10T18:38:44.860Z,56.08
2022-10-10T18:41:13.264Z,56.11
2022-10-10T18:43:41.707Z,56.20
2022-10-10T18:46:11.335Z,56.18
2022-10-10T18:48:39.296Z,55.96
2022-10-10T18:51:07.716Z,56.42
2022-10-10T18:53:36.099Z,56.13
2022-10-10T18:56:03.675Z,56.16
2022-10-10T18:58:31.165Z,56.30
2022-10-10T19:00:59.457Z,56.16
2022-10-10T19:03:28.377Z,56.42
2022-10-10T19:05:55.825Z,56.29
2022-10-10T19:08:23.256Z,56.59
2022-10-10T19:10:51.078Z,56.49
2022-10-10T19:13:20.056Z,56.30
2022-10-10T19:15:49.863Z,56.74
2022-10-10T19:18:17.374Z,56.89
2022-10-10T19:20:46.187Z,56.56
2022-10-10T19:23:14.781Z,56.60
2022-10-10T19:25:42.409Z,56.79
2022-10-10T19:28:10.105Z,56.67
2022-10-10T19:30:38.912Z,56.88
2022-10-10T19:33:06.374Z,56.65
2022-10-10T19:35:36.301Z,56.64
2022-10-10T19:38:05.239Z,56.47
2022-10-10T19:40:32.691Z,56.85
2022-10-10T19:43:00.158Z,56.81
2022-10-10T19:45:27.708Z,56.80
2022-10-10T19:47:55.132Z,56.96
2022-10-10T19:50:22.584Z,56.95
2022-10-10T19:52:50.049Z,56.63
2022-10-10T19:55:19.853Z,56.70
2022-10-10T19:57:47.288Z,56.88
2022-10-10T20:00:15.700Z,56.73
2022-10-10T20:02:43.798Z,56.87
2022-10-10T20:05:11.287Z,56.75
2022-10-10T20:07:38.704Z,56.96
2022-10-10T20:10:06.861Z,56.90
2022-10-10T20:12:35.972Z,56.88
2022-10-10T20:15:03.470Z,56.68
2022-10-10T20:17:30.938Z,56.81
2022-10-10T20:19:58.487Z,56.89
2022-10-10T20:22:25.930Z,56.92
2022-10-10T20:24:53.449Z,56.61
2022-10-10T20:27:20.886Z,56.64
2022-10-10T20:29:49.672Z,56.60
2022-10-10T20:32:17.106Z,56.61
2022-10-10T20:34:44.565Z,56.64
2022-10-10T20:37:12.047Z,56.61
2022-10-10T20:39:39.602Z,56.70
2022-10-10T20:42:07.056Z,56.95
2022-10-10T20:44:34.689Z,56.72
2022-10-10T20:47:03.441Z,56.60
2022-10-10T20:49:30.898Z,56.61
2022-10-10T20:51:58.333Z,56.83
2022-10-10T20:54:25.809Z,56.76
2022-10-10T20:56:53.255Z,56.54
2022-10-10T20:59:21.077Z,56.62
2022-10-10T21:01:48.688Z,56.73
2022-10-10T21:04:17.579Z,56.45
2022-10-10T21:06:45.032Z,56.50
2022-10-10T21:09:13.699Z,56.45
2022-10-10T21:11:41.151Z,56.32
2022-10-10T21:14:08.696Z,56.64
2022-10-10T21:16:37.045Z,56.64
2022-10-10T21:19:04.850Z,56.29
2022-10-10T21:21:34.850Z,56.45
2022-10-10T21:24:03.589Z,56.46
2022-10-10T21:26:31.076Z,56.25
2022-10-10T21:28:58.662Z,56.30
2022-10-10T21:31:27.448Z,56.37
2022-10-10T21:33:54.983Z,56.19
2022-10-10T21:36:22.949Z,56.20
2022-10-10T21:38:51.718Z,56.27
2022-10-10T21:41:20.521Z,56.33
2022-10-10T21:43:48.689Z,56.12
2022-10-10T21:46:16.982Z,56.15
2022-10-10T21:48:44.564Z,56.01
2022-10-10T21:51:12.085Z,56.15
2022-10-10T21:53:39.530Z,56.08
2022-10-10T21:56:09.229Z,55.99
2022-10-10T21:58:37.416Z,55.95
2022-10-10T22:01:08.486Z,55.92
2022-10-10T22:03:35.989Z,55.94
2022-10-10T22:06:04.659Z,55.96
2022-10-10T22:08:32.353Z,55.83
2022-10-10T22:11:01.432Z,55.87
2022-10-10T22:13:30.195Z,55.94
2022-10-10T22:15:57.918Z,56.25
2022-10-10T22:18:25.439Z,55.75
2022-10-10T22:20:53.131Z,55.90
2022-10-10T22:23:20.780Z,55.90
2022-10-10T22:25:49.091Z,55.99
2022-10-10T22:28:16.788Z,55.91
2022-10-10T22:30:45.582Z,55.82
2022-10-10T22:33:13.007Z,55.90
2022-10-10T22:35:40.565Z,55.51
2022-10-10T22:38:08.024Z,55.79
2022-10-10T22:40:35.488Z,55.68
2022-10-10T22:43:02.991Z,55.55
2022-10-10T22:45:30.416Z,55.61
2022-10-10T22:47:59.156Z,55.68
2022-10-10T22:50:26.616Z,55.51
2022-10-10T22:52:54.061Z,55.64
2022-10-10T22:55:21.689Z,55.50
2022-10-10T22:57:49.143Z,55.62
2022-10-10T23:00:17.181Z,55.60
2022-10-10T23:02:44.601Z,55.69
2022-10-10T23:05:13.359Z,55.60
2022-10-10T23:07:40.803Z,55.66
2022-10-10T23:10:09.550Z,55.73
2022-10-10T23:12:38.050Z,55.71
2022-10-10T23:15:06.343Z,55.57
2022-10-10T23:17:33.791Z,55.38
2022-10-10T23:20:01.243Z,55.69
2022-10-10T23:22:29.998Z,55.66
2022-10-10T23:24:57.451Z,55.54
2022-10-10T23:27:24.891Z,55.30
2022-10-10T23:29:52.332Z,55.70
2022-10-10T23:32:19.784Z,55.58
2022-10-10T23:34:47.246Z,55.59
2022-10-10T23:37:14.686Z,55.40
2022-10-10T23:39:43.516Z,55.51
2022-10-10T23:42:10.948Z,55.26
2022-10-10T23:44:38.394Z,55.33
2022-10-10T23:47:05.891Z,55.37
2022-10-10T23:49:33.335Z,55.32
2022-10-10T23:52:00.753Z,55.21
2022-10-10T23:54:28.216Z,55.20
2022-10-10T23:56:56.980Z,55.22
2022-10-10T23:59:24.435Z,55.13
